<?xml version="1.0" encoding="UTF-8" standalone="no" ?>
<gpx xmlns="http://www.topografix.com/GPX/1/1" xmlns:xsi="http://www.w3.org/2001/XMLSchema-instance" xsi:schemaLocation="http://www.topografix.com/GPX/1/1 http://www.topografix.com/GPX/1/1/gpx.xsd" version="1.1" creator="VisuGPX - https://www.visugpx.com">
  <metadata>
    <name>KAIN ENTRAINEMENT</name>
    <desc><![CDATA[entrainement pour le semi marathon la kainoise ]]></desc>
  </metadata>
  <trk>
    <name><![CDATA[2905171330 (1) on GPSies.com]]></name>
    <trkseg>
      <trkpt lat="50.66323" lon="3.39994">
        <ele>66</ele>
        <time>2010-01-01T00:00:00Z</time>
      </trkpt>
      <trkpt lat="50.66309" lon="3.40017">
        <ele>65</ele>
        <time>2010-01-01T00:00:08Z</time>
      </trkpt>
      <trkpt lat="50.66304" lon="3.40053">
        <ele>65</ele>
        <time>2010-01-01T00:00:17Z</time>
      </trkpt>
      <trkpt lat="50.66305" lon="3.40085">
        <ele>62</ele>
        <time>2010-01-01T00:00:25Z</time>
      </trkpt>
      <trkpt lat="50.66309" lon="3.40153">
        <ele>60</ele>
        <time>2010-01-01T00:00:42Z</time>
      </trkpt>
      <trkpt lat="50.66309" lon="3.40179">
        <ele>58</ele>
        <time>2010-01-01T00:00:49Z</time>
      </trkpt>
      <trkpt lat="50.66296" lon="3.40271">
        <ele>56</ele>
        <time>2010-01-01T00:01:13Z</time>
      </trkpt>
      <trkpt lat="50.66276" lon="3.40388">
        <ele>54</ele>
        <time>2010-01-01T00:01:44Z</time>
      </trkpt>
      <trkpt lat="50.66257" lon="3.40575">
        <ele>52</ele>
        <time>2010-01-01T00:02:32Z</time>
      </trkpt>
      <trkpt lat="50.6625" lon="3.40751">
        <ele>52</ele>
        <time>2010-01-01T00:03:16Z</time>
      </trkpt>
      <trkpt lat="50.66244" lon="3.40804">
        <ele>54</ele>
        <time>2010-01-01T00:03:30Z</time>
      </trkpt>
      <trkpt lat="50.66237" lon="3.40825">
        <ele>54</ele>
        <time>2010-01-01T00:03:36Z</time>
      </trkpt>
      <trkpt lat="50.662" lon="3.40903">
        <ele>55</ele>
        <time>2010-01-01T00:04:01Z</time>
      </trkpt>
      <trkpt lat="50.66188" lon="3.40937">
        <ele>56</ele>
        <time>2010-01-01T00:04:11Z</time>
      </trkpt>
      <trkpt lat="50.6617" lon="3.41021">
        <ele>57</ele>
        <time>2010-01-01T00:04:33Z</time>
      </trkpt>
      <trkpt lat="50.66138" lon="3.41109">
        <ele>61</ele>
        <time>2010-01-01T00:04:59Z</time>
      </trkpt>
      <trkpt lat="50.66116" lon="3.41184">
        <ele>61</ele>
        <time>2010-01-01T00:05:20Z</time>
      </trkpt>
      <trkpt lat="50.66113" lon="3.41251">
        <ele>62</ele>
        <time>2010-01-01T00:05:37Z</time>
      </trkpt>
      <trkpt lat="50.66109" lon="3.4132">
        <ele>62</ele>
        <time>2010-01-01T00:05:55Z</time>
      </trkpt>
      <trkpt lat="50.66102" lon="3.41434">
        <ele>65</ele>
        <time>2010-01-01T00:06:24Z</time>
      </trkpt>
      <trkpt lat="50.66101" lon="3.41537">
        <ele>67</ele>
        <time>2010-01-01T00:06:50Z</time>
      </trkpt>
      <trkpt lat="50.66052" lon="3.41539">
        <ele>69</ele>
        <time>2010-01-01T00:07:09Z</time>
      </trkpt>
      <trkpt lat="50.65932" lon="3.41545">
        <ele>74</ele>
        <time>2010-01-01T00:07:57Z</time>
      </trkpt>
      <trkpt lat="50.65881" lon="3.41549">
        <ele>82</ele>
        <time>2010-01-01T00:08:18Z</time>
      </trkpt>
      <trkpt lat="50.65772" lon="3.41524">
        <ele>96</ele>
        <time>2010-01-01T00:09:02Z</time>
      </trkpt>
      <trkpt lat="50.65725" lon="3.41515">
        <ele>101</ele>
        <time>2010-01-01T00:09:21Z</time>
      </trkpt>
      <trkpt lat="50.65704" lon="3.41514">
        <ele>101</ele>
        <time>2010-01-01T00:09:29Z</time>
      </trkpt>
      <trkpt lat="50.65609" lon="3.41526">
        <ele>100</ele>
        <time>2010-01-01T00:10:08Z</time>
      </trkpt>
      <trkpt lat="50.65592" lon="3.41526">
        <ele>99</ele>
        <time>2010-01-01T00:10:14Z</time>
      </trkpt>
      <trkpt lat="50.65575" lon="3.41518">
        <ele>99</ele>
        <time>2010-01-01T00:10:21Z</time>
      </trkpt>
      <trkpt lat="50.65562" lon="3.41492">
        <ele>100</ele>
        <time>2010-01-01T00:10:30Z</time>
      </trkpt>
      <trkpt lat="50.65553" lon="3.41464">
        <ele>100</ele>
        <time>2010-01-01T00:10:38Z</time>
      </trkpt>
      <trkpt lat="50.65532" lon="3.41392">
        <ele>102</ele>
        <time>2010-01-01T00:10:58Z</time>
      </trkpt>
      <trkpt lat="50.65517" lon="3.41336">
        <ele>103</ele>
        <time>2010-01-01T00:11:13Z</time>
      </trkpt>
      <trkpt lat="50.65505" lon="3.41274">
        <ele>104</ele>
        <time>2010-01-01T00:11:30Z</time>
      </trkpt>
      <trkpt lat="50.655" lon="3.41219">
        <ele>106</ele>
        <time>2010-01-01T00:11:44Z</time>
      </trkpt>
      <trkpt lat="50.65488" lon="3.41139">
        <ele>103</ele>
        <time>2010-01-01T00:12:05Z</time>
      </trkpt>
      <trkpt lat="50.65477" lon="3.41106">
        <ele>103</ele>
        <time>2010-01-01T00:12:14Z</time>
      </trkpt>
      <trkpt lat="50.65447" lon="3.41033">
        <ele>104</ele>
        <time>2010-01-01T00:12:36Z</time>
      </trkpt>
      <trkpt lat="50.65409" lon="3.40937">
        <ele>100</ele>
        <time>2010-01-01T00:13:05Z</time>
      </trkpt>
      <trkpt lat="50.65362" lon="3.40823">
        <ele>103</ele>
        <time>2010-01-01T00:13:40Z</time>
      </trkpt>
      <trkpt lat="50.65331" lon="3.40738">
        <ele>102</ele>
        <time>2010-01-01T00:14:04Z</time>
      </trkpt>
      <trkpt lat="50.653" lon="3.4067">
        <ele>101</ele>
        <time>2010-01-01T00:14:26Z</time>
      </trkpt>
      <trkpt lat="50.65251" lon="3.40589">
        <ele>99</ele>
        <time>2010-01-01T00:14:54Z</time>
      </trkpt>
      <trkpt lat="50.65223" lon="3.40543">
        <ele>93</ele>
        <time>2010-01-01T00:15:10Z</time>
      </trkpt>
      <trkpt lat="50.65182" lon="3.40494">
        <ele>90</ele>
        <time>2010-01-01T00:15:31Z</time>
      </trkpt>
      <trkpt lat="50.65134" lon="3.4044">
        <ele>86</ele>
        <time>2010-01-01T00:15:54Z</time>
      </trkpt>
      <trkpt lat="50.65099" lon="3.40404">
        <ele>85</ele>
        <time>2010-01-01T00:16:11Z</time>
      </trkpt>
      <trkpt lat="50.6507" lon="3.4039">
        <ele>82</ele>
        <time>2010-01-01T00:16:23Z</time>
      </trkpt>
      <trkpt lat="50.65051" lon="3.40391">
        <ele>81</ele>
        <time>2010-01-01T00:16:31Z</time>
      </trkpt>
      <trkpt lat="50.65023" lon="3.40402">
        <ele>79</ele>
        <time>2010-01-01T00:16:42Z</time>
      </trkpt>
      <trkpt lat="50.64957" lon="3.40438">
        <ele>75</ele>
        <time>2010-01-01T00:17:10Z</time>
      </trkpt>
      <trkpt lat="50.64924" lon="3.40449">
        <ele>74</ele>
        <time>2010-01-01T00:17:24Z</time>
      </trkpt>
      <trkpt lat="50.64906" lon="3.40447">
        <ele>69</ele>
        <time>2010-01-01T00:17:31Z</time>
      </trkpt>
      <trkpt lat="50.6488" lon="3.40433">
        <ele>68</ele>
        <time>2010-01-01T00:17:42Z</time>
      </trkpt>
      <trkpt lat="50.6486" lon="3.40401">
        <ele>64</ele>
        <time>2010-01-01T00:17:54Z</time>
      </trkpt>
      <trkpt lat="50.64842" lon="3.40369">
        <ele>64</ele>
        <time>2010-01-01T00:18:04Z</time>
      </trkpt>
      <trkpt lat="50.64819" lon="3.40351">
        <ele>59</ele>
        <time>2010-01-01T00:18:15Z</time>
      </trkpt>
      <trkpt lat="50.64794" lon="3.40344">
        <ele>58</ele>
        <time>2010-01-01T00:18:25Z</time>
      </trkpt>
      <trkpt lat="50.64748" lon="3.40347">
        <ele>53</ele>
        <time>2010-01-01T00:18:43Z</time>
      </trkpt>
      <trkpt lat="50.64697" lon="3.40343">
        <ele>50</ele>
        <time>2010-01-01T00:19:04Z</time>
      </trkpt>
      <trkpt lat="50.64667" lon="3.4034">
        <ele>48</ele>
        <time>2010-01-01T00:19:16Z</time>
      </trkpt>
      <trkpt lat="50.6467" lon="3.40329">
        <ele>47</ele>
        <time>2010-01-01T00:19:19Z</time>
      </trkpt>
      <trkpt lat="50.64682" lon="3.40285">
        <ele>47</ele>
        <time>2010-01-01T00:19:31Z</time>
      </trkpt>
      <trkpt lat="50.64691" lon="3.40259">
        <ele>46</ele>
        <time>2010-01-01T00:19:38Z</time>
      </trkpt>
      <trkpt lat="50.64738" lon="3.40205">
        <ele>45</ele>
        <time>2010-01-01T00:20:02Z</time>
      </trkpt>
      <trkpt lat="50.64771" lon="3.40132">
        <ele>47</ele>
        <time>2010-01-01T00:20:25Z</time>
      </trkpt>
      <trkpt lat="50.64784" lon="3.40091">
        <ele>47</ele>
        <time>2010-01-01T00:20:36Z</time>
      </trkpt>
      <trkpt lat="50.64795" lon="3.40029">
        <ele>48</ele>
        <time>2010-01-01T00:20:52Z</time>
      </trkpt>
      <trkpt lat="50.64777" lon="3.40025">
        <ele>48</ele>
        <time>2010-01-01T00:21:00Z</time>
      </trkpt>
      <trkpt lat="50.64723" lon="3.40001">
        <ele>44</ele>
        <time>2010-01-01T00:21:22Z</time>
      </trkpt>
      <trkpt lat="50.64654" lon="3.39973">
        <ele>41</ele>
        <time>2010-01-01T00:21:51Z</time>
      </trkpt>
      <trkpt lat="50.64634" lon="3.39971">
        <ele>41</ele>
        <time>2010-01-01T00:21:59Z</time>
      </trkpt>
      <trkpt lat="50.6458" lon="3.39974">
        <ele>37</ele>
        <time>2010-01-01T00:22:20Z</time>
      </trkpt>
      <trkpt lat="50.64508" lon="3.39978">
        <ele>35</ele>
        <time>2010-01-01T00:22:49Z</time>
      </trkpt>
      <trkpt lat="50.64481" lon="3.39983">
        <ele>33</ele>
        <time>2010-01-01T00:23:00Z</time>
      </trkpt>
      <trkpt lat="50.64435" lon="3.40008">
        <ele>33</ele>
        <time>2010-01-01T00:23:20Z</time>
      </trkpt>
      <trkpt lat="50.64412" lon="3.40016">
        <ele>32</ele>
        <time>2010-01-01T00:23:29Z</time>
      </trkpt>
      <trkpt lat="50.64394" lon="3.4002">
        <ele>32</ele>
        <time>2010-01-01T00:23:36Z</time>
      </trkpt>
      <trkpt lat="50.64355" lon="3.40014">
        <ele>32</ele>
        <time>2010-01-01T00:23:52Z</time>
      </trkpt>
      <trkpt lat="50.643" lon="3.4">
        <ele>29</ele>
        <time>2010-01-01T00:24:14Z</time>
      </trkpt>
      <trkpt lat="50.64262" lon="3.39994">
        <ele>28</ele>
        <time>2010-01-01T00:24:30Z</time>
      </trkpt>
      <trkpt lat="50.64235" lon="3.39989">
        <ele>26</ele>
        <time>2010-01-01T00:24:40Z</time>
      </trkpt>
      <trkpt lat="50.64185" lon="3.39967">
        <ele>25</ele>
        <time>2010-01-01T00:25:01Z</time>
      </trkpt>
      <trkpt lat="50.64143" lon="3.39949">
        <ele>24</ele>
        <time>2010-01-01T00:25:19Z</time>
      </trkpt>
      <trkpt lat="50.64124" lon="3.39947">
        <ele>24</ele>
        <time>2010-01-01T00:25:26Z</time>
      </trkpt>
      <trkpt lat="50.64114" lon="3.3995">
        <ele>23</ele>
        <time>2010-01-01T00:25:30Z</time>
      </trkpt>
      <trkpt lat="50.64077" lon="3.39941">
        <ele>22</ele>
        <time>2010-01-01T00:25:45Z</time>
      </trkpt>
      <trkpt lat="50.63976" lon="3.39911">
        <ele>22</ele>
        <time>2010-01-01T00:26:26Z</time>
      </trkpt>
      <trkpt lat="50.63962" lon="3.39905">
        <ele>22</ele>
        <time>2010-01-01T00:26:32Z</time>
      </trkpt>
      <trkpt lat="50.63947" lon="3.399">
        <ele>22</ele>
        <time>2010-01-01T00:26:38Z</time>
      </trkpt>
      <trkpt lat="50.63958" lon="3.39823">
        <ele>23</ele>
        <time>2010-01-01T00:26:59Z</time>
      </trkpt>
      <trkpt lat="50.63948" lon="3.39754">
        <ele>23</ele>
        <time>2010-01-01T00:27:17Z</time>
      </trkpt>
      <trkpt lat="50.63949" lon="3.39599">
        <ele>23</ele>
        <time>2010-01-01T00:27:56Z</time>
      </trkpt>
      <trkpt lat="50.63965" lon="3.39315">
        <ele>24</ele>
        <time>2010-01-01T00:29:08Z</time>
      </trkpt>
      <trkpt lat="50.6398" lon="3.39226">
        <ele>23</ele>
        <time>2010-01-01T00:29:32Z</time>
      </trkpt>
      <trkpt lat="50.64016" lon="3.39215">
        <ele>26</ele>
        <time>2010-01-01T00:29:46Z</time>
      </trkpt>
      <trkpt lat="50.64051" lon="3.39201">
        <ele>26</ele>
        <time>2010-01-01T00:30:01Z</time>
      </trkpt>
      <trkpt lat="50.6405" lon="3.3913">
        <ele>25</ele>
        <time>2010-01-01T00:30:19Z</time>
      </trkpt>
      <trkpt lat="50.64048" lon="3.39022">
        <ele>24</ele>
        <time>2010-01-01T00:30:46Z</time>
      </trkpt>
      <trkpt lat="50.64052" lon="3.3896">
        <ele>23</ele>
        <time>2010-01-01T00:31:02Z</time>
      </trkpt>
      <trkpt lat="50.64067" lon="3.38889">
        <ele>22</ele>
        <time>2010-01-01T00:31:21Z</time>
      </trkpt>
      <trkpt lat="50.64066" lon="3.38818">
        <ele>22</ele>
        <time>2010-01-01T00:31:39Z</time>
      </trkpt>
      <trkpt lat="50.64054" lon="3.38747">
        <ele>22</ele>
        <time>2010-01-01T00:31:58Z</time>
      </trkpt>
      <trkpt lat="50.64057" lon="3.3874">
        <ele>22</ele>
        <time>2010-01-01T00:32:00Z</time>
      </trkpt>
      <trkpt lat="50.6405" lon="3.38709">
        <ele>22</ele>
        <time>2010-01-01T00:32:08Z</time>
      </trkpt>
      <trkpt lat="50.64037" lon="3.38644">
        <ele>21</ele>
        <time>2010-01-01T00:32:26Z</time>
      </trkpt>
      <trkpt lat="50.64014" lon="3.38545">
        <ele>21</ele>
        <time>2010-01-01T00:32:52Z</time>
      </trkpt>
      <trkpt lat="50.63987" lon="3.3845">
        <ele>21</ele>
        <time>2010-01-01T00:33:19Z</time>
      </trkpt>
      <trkpt lat="50.63967" lon="3.38423">
        <ele>21</ele>
        <time>2010-01-01T00:33:29Z</time>
      </trkpt>
      <trkpt lat="50.63952" lon="3.38383">
        <ele>21</ele>
        <time>2010-01-01T00:33:41Z</time>
      </trkpt>
      <trkpt lat="50.63933" lon="3.38323">
        <ele>21</ele>
        <time>2010-01-01T00:33:58Z</time>
      </trkpt>
      <trkpt lat="50.6392" lon="3.38293">
        <ele>21</ele>
        <time>2010-01-01T00:34:07Z</time>
      </trkpt>
      <trkpt lat="50.63899" lon="3.38241">
        <ele>21</ele>
        <time>2010-01-01T00:34:23Z</time>
      </trkpt>
      <trkpt lat="50.63876" lon="3.38147">
        <ele>21</ele>
        <time>2010-01-01T00:34:49Z</time>
      </trkpt>
      <trkpt lat="50.63872" lon="3.38126">
        <ele>21</ele>
        <time>2010-01-01T00:34:54Z</time>
      </trkpt>
      <trkpt lat="50.63904" lon="3.38132">
        <ele>21</ele>
        <time>2010-01-01T00:35:07Z</time>
      </trkpt>
      <trkpt lat="50.63954" lon="3.38139">
        <ele>21</ele>
        <time>2010-01-01T00:35:27Z</time>
      </trkpt>
      <trkpt lat="50.6398" lon="3.38149">
        <ele>21</ele>
        <time>2010-01-01T00:35:38Z</time>
      </trkpt>
      <trkpt lat="50.6406" lon="3.38221">
        <ele>22</ele>
        <time>2010-01-01T00:36:15Z</time>
      </trkpt>
      <trkpt lat="50.64169" lon="3.38316">
        <ele>24</ele>
        <time>2010-01-01T00:37:05Z</time>
      </trkpt>
      <trkpt lat="50.6424" lon="3.38373">
        <ele>26</ele>
        <time>2010-01-01T00:37:36Z</time>
      </trkpt>
      <trkpt lat="50.64307" lon="3.38402">
        <ele>29</ele>
        <time>2010-01-01T00:38:04Z</time>
      </trkpt>
      <trkpt lat="50.64334" lon="3.38418">
        <ele>31</ele>
        <time>2010-01-01T00:38:16Z</time>
      </trkpt>
      <trkpt lat="50.64408" lon="3.38442">
        <ele>33</ele>
        <time>2010-01-01T00:38:46Z</time>
      </trkpt>
      <trkpt lat="50.64494" lon="3.38462">
        <ele>36</ele>
        <time>2010-01-01T00:39:21Z</time>
      </trkpt>
      <trkpt lat="50.64514" lon="3.38459">
        <ele>39</ele>
        <time>2010-01-01T00:39:29Z</time>
      </trkpt>
      <trkpt lat="50.64552" lon="3.38425">
        <ele>39</ele>
        <time>2010-01-01T00:39:46Z</time>
      </trkpt>
      <trkpt lat="50.6459" lon="3.384">
        <ele>40</ele>
        <time>2010-01-01T00:40:03Z</time>
      </trkpt>
      <trkpt lat="50.64607" lon="3.38399">
        <ele>41</ele>
        <time>2010-01-01T00:40:10Z</time>
      </trkpt>
      <trkpt lat="50.64623" lon="3.38403">
        <ele>41</ele>
        <time>2010-01-01T00:40:16Z</time>
      </trkpt>
      <trkpt lat="50.6464" lon="3.38415">
        <ele>42</ele>
        <time>2010-01-01T00:40:24Z</time>
      </trkpt>
      <trkpt lat="50.64666" lon="3.38439">
        <ele>43</ele>
        <time>2010-01-01T00:40:36Z</time>
      </trkpt>
      <trkpt lat="50.64696" lon="3.38462">
        <ele>45</ele>
        <time>2010-01-01T00:40:49Z</time>
      </trkpt>
      <trkpt lat="50.6477" lon="3.38477">
        <ele>49</ele>
        <time>2010-01-01T00:41:19Z</time>
      </trkpt>
      <trkpt lat="50.64782" lon="3.38483">
        <ele>49</ele>
        <time>2010-01-01T00:41:24Z</time>
      </trkpt>
      <trkpt lat="50.64808" lon="3.38503">
        <ele>50</ele>
        <time>2010-01-01T00:41:36Z</time>
      </trkpt>
      <trkpt lat="50.64836" lon="3.38529">
        <ele>52</ele>
        <time>2010-01-01T00:41:49Z</time>
      </trkpt>
      <trkpt lat="50.64896" lon="3.38582">
        <ele>53</ele>
        <time>2010-01-01T00:42:16Z</time>
      </trkpt>
      <trkpt lat="50.64951" lon="3.38639">
        <ele>57</ele>
        <time>2010-01-01T00:42:42Z</time>
      </trkpt>
      <trkpt lat="50.65004" lon="3.38697">
        <ele>62</ele>
        <time>2010-01-01T00:43:08Z</time>
      </trkpt>
      <trkpt lat="50.65062" lon="3.38762">
        <ele>65</ele>
        <time>2010-01-01T00:43:37Z</time>
      </trkpt>
      <trkpt lat="50.65083" lon="3.38786">
        <ele>65</ele>
        <time>2010-01-01T00:43:47Z</time>
      </trkpt>
      <trkpt lat="50.65096" lon="3.38801">
        <ele>69</ele>
        <time>2010-01-01T00:43:54Z</time>
      </trkpt>
      <trkpt lat="50.65147" lon="3.38761">
        <ele>70</ele>
        <time>2010-01-01T00:44:16Z</time>
      </trkpt>
      <trkpt lat="50.65217" lon="3.38709">
        <ele>70</ele>
        <time>2010-01-01T00:44:47Z</time>
      </trkpt>
      <trkpt lat="50.65237" lon="3.387">
        <ele>70</ele>
        <time>2010-01-01T00:44:56Z</time>
      </trkpt>
      <trkpt lat="50.65256" lon="3.38699">
        <ele>67</ele>
        <time>2010-01-01T00:45:03Z</time>
      </trkpt>
      <trkpt lat="50.65277" lon="3.38704">
        <ele>67</ele>
        <time>2010-01-01T00:45:12Z</time>
      </trkpt>
      <trkpt lat="50.65293" lon="3.38711">
        <ele>66</ele>
        <time>2010-01-01T00:45:18Z</time>
      </trkpt>
      <trkpt lat="50.65336" lon="3.38747">
        <ele>64</ele>
        <time>2010-01-01T00:45:38Z</time>
      </trkpt>
      <trkpt lat="50.65401" lon="3.38799">
        <ele>65</ele>
        <time>2010-01-01T00:46:07Z</time>
      </trkpt>
      <trkpt lat="50.65427" lon="3.3882">
        <ele>63</ele>
        <time>2010-01-01T00:46:19Z</time>
      </trkpt>
      <trkpt lat="50.65442" lon="3.38822">
        <ele>62</ele>
        <time>2010-01-01T00:46:25Z</time>
      </trkpt>
      <trkpt lat="50.65461" lon="3.38819">
        <ele>61</ele>
        <time>2010-01-01T00:46:32Z</time>
      </trkpt>
      <trkpt lat="50.6551" lon="3.38801">
        <ele>59</ele>
        <time>2010-01-01T00:46:53Z</time>
      </trkpt>
      <trkpt lat="50.6553" lon="3.38786">
        <ele>59</ele>
        <time>2010-01-01T00:47:01Z</time>
      </trkpt>
      <trkpt lat="50.65556" lon="3.38754">
        <ele>59</ele>
        <time>2010-01-01T00:47:15Z</time>
      </trkpt>
      <trkpt lat="50.65578" lon="3.38731">
        <ele>58</ele>
        <time>2010-01-01T00:47:25Z</time>
      </trkpt>
      <trkpt lat="50.65642" lon="3.38691">
        <ele>55</ele>
        <time>2010-01-01T00:47:53Z</time>
      </trkpt>
      <trkpt lat="50.65713" lon="3.38658">
        <ele>50</ele>
        <time>2010-01-01T00:48:22Z</time>
      </trkpt>
      <trkpt lat="50.65751" lon="3.38644">
        <ele>48</ele>
        <time>2010-01-01T00:48:38Z</time>
      </trkpt>
      <trkpt lat="50.65773" lon="3.3864">
        <ele>48</ele>
        <time>2010-01-01T00:48:47Z</time>
      </trkpt>
      <trkpt lat="50.65802" lon="3.38639">
        <ele>47</ele>
        <time>2010-01-01T00:48:58Z</time>
      </trkpt>
      <trkpt lat="50.6582" lon="3.38641">
        <ele>47</ele>
        <time>2010-01-01T00:49:06Z</time>
      </trkpt>
      <trkpt lat="50.65826" lon="3.38629">
        <ele>47</ele>
        <time>2010-01-01T00:49:10Z</time>
      </trkpt>
      <trkpt lat="50.65823" lon="3.38598">
        <ele>46</ele>
        <time>2010-01-01T00:49:18Z</time>
      </trkpt>
      <trkpt lat="50.65811" lon="3.38451">
        <ele>42</ele>
        <time>2010-01-01T00:49:55Z</time>
      </trkpt>
      <trkpt lat="50.65799" lon="3.38322">
        <ele>40</ele>
        <time>2010-01-01T00:50:28Z</time>
      </trkpt>
      <trkpt lat="50.65805" lon="3.3829">
        <ele>40</ele>
        <time>2010-01-01T00:50:37Z</time>
      </trkpt>
      <trkpt lat="50.65822" lon="3.38226">
        <ele>39</ele>
        <time>2010-01-01T00:50:54Z</time>
      </trkpt>
      <trkpt lat="50.65841" lon="3.38145">
        <ele>36</ele>
        <time>2010-01-01T00:51:16Z</time>
      </trkpt>
      <trkpt lat="50.65858" lon="3.38042">
        <ele>34</ele>
        <time>2010-01-01T00:51:43Z</time>
      </trkpt>
      <trkpt lat="50.6587" lon="3.37957">
        <ele>33</ele>
        <time>2010-01-01T00:52:05Z</time>
      </trkpt>
      <trkpt lat="50.65872" lon="3.37877">
        <ele>33</ele>
        <time>2010-01-01T00:52:26Z</time>
      </trkpt>
      <trkpt lat="50.65872" lon="3.37755">
        <ele>32</ele>
        <time>2010-01-01T00:52:57Z</time>
      </trkpt>
      <trkpt lat="50.65874" lon="3.37678">
        <ele>32</ele>
        <time>2010-01-01T00:53:16Z</time>
      </trkpt>
      <trkpt lat="50.65882" lon="3.37607">
        <ele>31</ele>
        <time>2010-01-01T00:53:34Z</time>
      </trkpt>
      <trkpt lat="50.65906" lon="3.37514">
        <ele>30</ele>
        <time>2010-01-01T00:54:00Z</time>
      </trkpt>
      <trkpt lat="50.6593" lon="3.3744">
        <ele>28</ele>
        <time>2010-01-01T00:54:21Z</time>
      </trkpt>
      <trkpt lat="50.65945" lon="3.37405">
        <ele>27</ele>
        <time>2010-01-01T00:54:32Z</time>
      </trkpt>
      <trkpt lat="50.65997" lon="3.37323">
        <ele>25</ele>
        <time>2010-01-01T00:55:01Z</time>
      </trkpt>
      <trkpt lat="50.66012" lon="3.37303">
        <ele>23</ele>
        <time>2010-01-01T00:55:09Z</time>
      </trkpt>
      <trkpt lat="50.66021" lon="3.37315">
        <ele>23</ele>
        <time>2010-01-01T00:55:14Z</time>
      </trkpt>
      <trkpt lat="50.66038" lon="3.37322">
        <ele>23</ele>
        <time>2010-01-01T00:55:21Z</time>
      </trkpt>
      <trkpt lat="50.66059" lon="3.37325">
        <ele>22</ele>
        <time>2010-01-01T00:55:29Z</time>
      </trkpt>
      <trkpt lat="50.6608" lon="3.3732">
        <ele>22</ele>
        <time>2010-01-01T00:55:38Z</time>
      </trkpt>
      <trkpt lat="50.66121" lon="3.37307">
        <ele>21</ele>
        <time>2010-01-01T00:55:55Z</time>
      </trkpt>
      <trkpt lat="50.66153" lon="3.37298">
        <ele>21</ele>
        <time>2010-01-01T00:56:08Z</time>
      </trkpt>
      <trkpt lat="50.66168" lon="3.373">
        <ele>20</ele>
        <time>2010-01-01T00:56:14Z</time>
      </trkpt>
      <trkpt lat="50.66194" lon="3.37311">
        <ele>20</ele>
        <time>2010-01-01T00:56:24Z</time>
      </trkpt>
      <trkpt lat="50.66244" lon="3.37334">
        <ele>20</ele>
        <time>2010-01-01T00:56:45Z</time>
      </trkpt>
      <trkpt lat="50.66263" lon="3.37337">
        <ele>20</ele>
        <time>2010-01-01T00:56:53Z</time>
      </trkpt>
      <trkpt lat="50.66275" lon="3.37328">
        <ele>20</ele>
        <time>2010-01-01T00:56:58Z</time>
      </trkpt>
      <trkpt lat="50.66299" lon="3.37325">
        <ele>20</ele>
        <time>2010-01-01T00:57:08Z</time>
      </trkpt>
      <trkpt lat="50.66315" lon="3.37334">
        <ele>21</ele>
        <time>2010-01-01T00:57:15Z</time>
      </trkpt>
      <trkpt lat="50.66364" lon="3.37375">
        <ele>22</ele>
        <time>2010-01-01T00:57:37Z</time>
      </trkpt>
      <trkpt lat="50.6639" lon="3.37399">
        <ele>23</ele>
        <time>2010-01-01T00:57:49Z</time>
      </trkpt>
      <trkpt lat="50.66397" lon="3.37409">
        <ele>23</ele>
        <time>2010-01-01T00:57:53Z</time>
      </trkpt>
      <trkpt lat="50.66424" lon="3.37491">
        <ele>25</ele>
        <time>2010-01-01T00:58:16Z</time>
      </trkpt>
      <trkpt lat="50.66453" lon="3.37581">
        <ele>27</ele>
        <time>2010-01-01T00:58:42Z</time>
      </trkpt>
      <trkpt lat="50.66485" lon="3.37667">
        <ele>30</ele>
        <time>2010-01-01T00:59:07Z</time>
      </trkpt>
      <trkpt lat="50.66503" lon="3.37726">
        <ele>33</ele>
        <time>2010-01-01T00:59:24Z</time>
      </trkpt>
      <trkpt lat="50.66518" lon="3.37751">
        <ele>34</ele>
        <time>2010-01-01T00:59:32Z</time>
      </trkpt>
      <trkpt lat="50.66562" lon="3.37809">
        <ele>36</ele>
        <time>2010-01-01T00:59:55Z</time>
      </trkpt>
      <trkpt lat="50.6658" lon="3.37832">
        <ele>39</ele>
        <time>2010-01-01T01:00:05Z</time>
      </trkpt>
      <trkpt lat="50.66622" lon="3.37844">
        <ele>43</ele>
        <time>2010-01-01T01:00:22Z</time>
      </trkpt>
      <trkpt lat="50.66658" lon="3.37875">
        <ele>45</ele>
        <time>2010-01-01T01:00:38Z</time>
      </trkpt>
      <trkpt lat="50.66695" lon="3.37895">
        <ele>49</ele>
        <time>2010-01-01T01:00:54Z</time>
      </trkpt>
      <trkpt lat="50.66736" lon="3.37897">
        <ele>50</ele>
        <time>2010-01-01T01:01:10Z</time>
      </trkpt>
      <trkpt lat="50.66763" lon="3.37902">
        <ele>50</ele>
        <time>2010-01-01T01:01:21Z</time>
      </trkpt>
      <trkpt lat="50.66792" lon="3.3791">
        <ele>49</ele>
        <time>2010-01-01T01:01:33Z</time>
      </trkpt>
      <trkpt lat="50.66829" lon="3.37933">
        <ele>49</ele>
        <time>2010-01-01T01:01:49Z</time>
      </trkpt>
      <trkpt lat="50.66863" lon="3.3796">
        <ele>47</ele>
        <time>2010-01-01T01:02:04Z</time>
      </trkpt>
      <trkpt lat="50.66907" lon="3.37995">
        <ele>47</ele>
        <time>2010-01-01T01:02:24Z</time>
      </trkpt>
      <trkpt lat="50.66949" lon="3.38019">
        <ele>46</ele>
        <time>2010-01-01T01:02:42Z</time>
      </trkpt>
      <trkpt lat="50.66995" lon="3.38031">
        <ele>45</ele>
        <time>2010-01-01T01:03:00Z</time>
      </trkpt>
      <trkpt lat="50.66763" lon="3.38428">
        <ele>49</ele>
        <time>2010-01-01T01:05:17Z</time>
      </trkpt>
      <trkpt lat="50.66595" lon="3.38621">
        <ele>52</ele>
        <time>2010-01-01T01:06:41Z</time>
      </trkpt>
      <trkpt lat="50.66521" lon="3.38712">
        <ele>54</ele>
        <time>2010-01-01T01:07:18Z</time>
      </trkpt>
      <trkpt lat="50.66459" lon="3.38793">
        <ele>58</ele>
        <time>2010-01-01T01:07:50Z</time>
      </trkpt>
      <trkpt lat="50.66429" lon="3.39128">
        <ele>58</ele>
        <time>2010-01-01T01:09:16Z</time>
      </trkpt>
      <trkpt lat="50.66464" lon="3.3948">
        <ele>53</ele>
        <time>2010-01-01T01:10:46Z</time>
      </trkpt>
      <trkpt lat="50.66358" lon="3.39698">
        <ele>59</ele>
        <time>2010-01-01T01:11:56Z</time>
      </trkpt>
      <trkpt lat="50.66323" lon="3.39994">
        <ele>66</ele>
        <time>2010-01-01T01:13:13Z</time>
      </trkpt>
      <trkpt lat="50.6625" lon="3.40751">
        <ele>52</ele>
        <time>2010-01-01T01:16:27Z</time>
      </trkpt>
    </trkseg>
  </trk>
</gpx>